createdAt,value
2022-12-01T00:01:51.227Z,87.70
2022-12-01T02:15:58.560Z,87.10
2022-12-01T02:20:42.768Z,87.00
2022-12-01T02:25:14.280Z,87.20
2022-12-01T02:39:07.437Z,87.30
2022-12-01T02:43:21.209Z,87.60
2022-12-01T03:02:01.454Z,87.20
2022-12-01T03:33:36.353Z,87.30
2022-12-01T03:49:59.930Z,87.20
2022-12-01T04:07:08.428Z,87.20
2022-12-01T04:11:08.663Z,87.20
2022-12-01T04:15:01.723Z,87.30
2022-12-01T04:18:47.008Z,87.50
2022-12-01T04:41:07.220Z,87.50
2022-12-01T04:59:03.480Z,87.60
2022-12-01T05:03:25.101Z,87.50
2022-12-01T05:07:24.392Z,87.60
2022-12-01T05:36:55.230Z,87.60
2022-12-01T06:10:33.815Z,87.40
2022-12-01T06:22:23.274Z,87.70
2022-12-01T06:26:14.048Z,87.70
2022-12-01T06:34:17.279Z,87.60
2022-12-01T09:16:19.198Z,88.60
2022-12-01T09:20:05.143Z,88.80
2022-12-01T09:23:55.169Z,88.60
2022-12-01T09:32:00.408Z,88.40
2022-12-01T09:35:49.722Z,88.40
2022-12-01T09:39:44.852Z,88.50
2022-12-01T09:44:05.414Z,88.60
2022-12-01T09:47:55.281Z,88.50
2022-12-01T09:51:49.486Z,88.60
2022-12-01T09:55:37.363Z,88.40
2022-12-01T09:59:31.926Z,88.30
2022-12-01T10:03:54.135Z,88.20
2022-12-01T10:07:42.924Z,87.70
2022-12-01T10:11:37.301Z,88.10
2022-12-01T10:15:54.018Z,87.70
2022-12-01T10:20:12.015Z,87.10
2022-12-01T10:24:29.833Z,87.70
2022-12-01T10:28:35.519Z,87.50
2022-12-01T10:32:24.076Z,87.80
2022-12-01T10:36:07.485Z,87.80
2022-12-01T10:39:53.731Z,87.80
2022-12-01T10:43:49.801Z,87.80
2022-12-01T10:47:36.107Z,87.70
2022-12-01T10:51:22.683Z,87.80
2022-12-01T10:55:30.789Z,87.80
2022-12-01T11:04:11.493Z,87.20
2022-12-01T11:12:29.495Z,87.30
2022-12-01T11:16:38.100Z,86.80
2022-12-01T11:21:19.115Z,86.80
2022-12-01T11:25:07.182Z,86.90
2022-12-01T11:29:15.819Z,87.10
2022-12-01T11:33:06.940Z,87.00
2022-12-01T11:36:54.801Z,86.90
2022-12-01T11:40:55.517Z,86.90
2022-12-01T11:44:54.027Z,86.60
2022-12-01T11:48:39.570Z,87.10
2022-12-01T11:52:39.121Z,87.00
2022-12-01T11:56:33.597Z,86.90
2022-12-01T12:00:20.895Z,86.60
2022-12-01T12:04:41.179Z,86.80
2022-12-01T12:09:01.392Z,86.40
2022-12-01T12:13:24.793Z,86.40
2022-12-01T12:21:59.416Z,86.40
2022-12-01T12:26:12.039Z,86.20
2022-12-01T12:30:01.117Z,86.40
2022-12-01T12:34:06.669Z,86.60
2022-12-01T12:38:04.179Z,86.70
2022-12-01T12:41:58.551Z,86.20
2022-12-01T12:46:27.126Z,85.90
2022-12-01T12:51:18.203Z,85.10
2022-12-01T12:59:45.404Z,85.40
2022-12-01T13:04:00.620Z,85.60
2022-12-01T13:07:49.640Z,85.30
2022-12-01T13:12:10.281Z,85.80
2022-12-01T13:20:20.880Z,86.10
2022-12-01T13:28:05.673Z,86.10
2022-12-01T13:31:52.004Z,86.00
2022-12-01T13:35:40.134Z,86.00
2022-12-01T13:39:26.698Z,85.70
2022-12-01T13:43:21.396Z,86.00
2022-12-01T13:47:07.028Z,85.50
2022-12-01T13:55:55.501Z,85.10
2022-12-01T13:59:48.370Z,85.40
2022-12-01T14:03:45.017Z,86.00
2022-12-01T14:07:36.246Z,85.80
2022-12-01T14:11:30.208Z,85.60
2022-12-01T14:15:37.223Z,85.60
2022-12-01T14:19:48.592Z,85.60
2022-12-01T14:24:29.607Z,85.50
2022-12-01T14:28:24.235Z,85.50
2022-12-01T14:32:24.929Z,86.00
2022-12-01T14:36:41.619Z,86.10
2022-12-01T14:40:32.310Z,86.00
2022-12-01T14:44:49.582Z,86.20
2022-12-01T14:58:00.435Z,86.00
2022-12-01T15:02:28.043Z,86.20
2022-12-01T15:06:16.304Z,85.90
2022-12-01T15:10:07.015Z,86.10
2022-12-01T15:13:52.078Z,85.90
2022-12-01T15:17:37.925Z,86.00
2022-12-01T15:21:31.194Z,86.10
2022-12-01T15:25:18.956Z,86.10
2022-12-01T15:29:29.151Z,86.30
2022-12-01T15:33:54.576Z,86.20
2022-12-01T15:41:58.853Z,86.00
2022-12-01T15:46:09.262Z,86.20
2022-12-01T15:50:31.195Z,85.90
2022-12-01T15:58:54.088Z,86.00
2022-12-01T16:26:14.387Z,86.20
2022-12-01T16:30:04.950Z,86.40
2022-12-01T16:37:44.355Z,86.40
2022-12-01T16:41:38.329Z,86.40
2022-12-01T16:45:20.991Z,86.40
2022-12-01T16:49:04.010Z,86.40
2022-12-01T16:52:48.152Z,86.50
2022-12-01T16:56:30.258Z,86.60
2022-12-01T17:00:12.799Z,86.60
2022-12-01T17:03:54.985Z,86.60
2022-12-01T17:07:40.322Z,86.60
2022-12-01T17:11:25.975Z,86.50
2022-12-01T17:15:09.253Z,86.60
2022-12-01T17:18:51.830Z,86.60
2022-12-01T17:22:35.708Z,86.70
2022-12-01T17:26:21.454Z,86.70
2022-12-01T17:30:04.055Z,86.70
2022-12-01T17:33:46.511Z,86.60
2022-12-01T17:37:28.644Z,86.60
2022-12-01T17:41:21.987Z,86.70
2022-12-01T17:45:04.182Z,86.70
2022-12-01T17:48:48.555Z,86.70
2022-12-01T17:52:30.491Z,86.70
2022-12-01T17:56:15.520Z,86.70
2022-12-01T18:00:02.093Z,86.70
2022-12-01T18:03:46.749Z,86.70
2022-12-01T18:07:29.327Z,86.50
2022-12-01T18:11:14.408Z,86.60
2022-12-01T18:14:56.464Z,86.60
2022-12-01T18:18:39.007Z,86.70
2022-12-01T18:22:20.982Z,86.60
2022-12-01T18:26:15.419Z,86.60
2022-12-01T18:29:58.109Z,86.60
2022-12-01T18:33:41.880Z,86.60
2022-12-01T18:37:25.060Z,86.60
2022-12-01T18:41:07.140Z,86.60
2022-12-01T18:44:49.347Z,86.70
2022-12-01T18:48:32.656Z,86.80
2022-12-01T18:52:14.541Z,86.90
2022-12-01T18:55:56.541Z,86.80
2022-12-01T18:59:38.503Z,86.90
2022-12-01T19:03:20.934Z,86.90
2022-12-01T19:07:02.882Z,86.80
2022-12-01T19:10:44.900Z,86.80
2022-12-01T19:14:28.611Z,86.90
2022-12-01T19:18:10.418Z,86.90
2022-12-01T19:21:53.330Z,86.90
2022-12-01T19:25:36.749Z,86.80
2022-12-01T19:29:19.026Z,86.80
2022-12-01T19:33:01.124Z,86.70
2022-12-01T19:36:45.266Z,86.80
2022-12-01T19:40:27.210Z,86.80
2022-12-01T19:44:10.047Z,86.80
2022-12-01T19:47:54.077Z,86.90
2022-12-01T19:51:38.185Z,86.90
2022-12-01T19:55:22.458Z,86.80
2022-12-01T19:59:05.695Z,86.90
2022-12-01T20:02:48.240Z,86.90
2022-12-01T20:06:32.060Z,87.00
2022-12-01T20:10:13.973Z,87.00
2022-12-01T20:13:56.435Z,87.00
2022-12-01T20:17:39.781Z,87.00
2022-12-01T20:21:27.973Z,87.00
2022-12-01T20:25:10.607Z,87.00
2022-12-01T20:28:53.266Z,86.90
2022-12-01T20:32:35.722Z,87.00
2022-12-01T20:36:19.707Z,87.10
2022-12-01T20:40:01.822Z,87.10
2022-12-01T20:43:46.817Z,87.10
2022-12-01T20:47:28.747Z,87.00
2022-12-01T20:51:14.239Z,87.00
2022-12-01T20:54:56.335Z,87.00
2022-12-01T20:58:41.365Z,87.10
2022-12-01T21:02:23.736Z,87.00
2022-12-01T21:06:08.064Z,87.00
2022-12-01T21:09:50.280Z,87.00
2022-12-01T21:13:44.236Z,87.00
2022-12-01T21:18:13.296Z,87.00
2022-12-01T21:21:55.459Z,87.00
2022-12-01T21:25:39.460Z,87.00
2022-12-01T21:29:27.921Z,87.00
2022-12-01T21:33:34.159Z,87.00
2022-12-01T21:37:25.183Z,86.80
2022-12-01T21:41:27.479Z,86.90
2022-12-01T21:45:27.792Z,87.00
2022-12-01T21:49:19.564Z,87.10
2022-12-01T21:53:01.465Z,87.20
2022-12-01T21:56:43.686Z,87.20
2022-12-01T22:00:34.360Z,87.10
2022-12-01T22:04:21.344Z,86.90
2022-12-01T22:08:27.808Z,86.90
2022-12-01T22:12:28.685Z,86.70
2022-12-01T22:16:21.584Z,86.70
2022-12-01T22:20:21.100Z,86.60
2022-12-01T22:24:26.284Z,86.70
2022-12-01T22:28:19.800Z,86.60
2022-12-01T22:32:13.921Z,86.80
2022-12-01T22:35:55.951Z,86.90
2022-12-01T22:39:38.026Z,87.00
2022-12-01T22:43:28.029Z,87.00
2022-12-01T22:47:10.184Z,86.90
2022-12-01T22:51:08.345Z,86.90
2022-12-01T22:54:50.621Z,86.90
2022-12-01T22:58:39.870Z,86.90
2022-12-01T23:02:31.110Z,87.00
2022-12-01T23:06:55.539Z,86.70
2022-12-01T23:10:39.870Z,86.40
2022-12-01T23:14:23.767Z,86.60
2022-12-01T23:18:24.168Z,86.60
2022-12-01T23:22:06.148Z,86.10
2022-12-01T23:25:50.806Z,86.50
2022-12-01T23:29:32.914Z,86.50
2022-12-01T23:33:23.597Z,86.60
2022-12-01T23:37:21.366Z,86.60
2022-12-01T23:41:07.269Z,86.80
2022-12-01T23:44:49.895Z,86.70
2022-12-01T23:48:38.851Z,86.50
2022-12-01T23:52:21.573Z,86.40
2022-12-01T23:56:12.685Z,86.40
